Tuesday, January 23, 2018, 11:56 PM GMT
Back to Local

CYHU, Saint Hubert Airport

Location: , , Canada Lat: 45.517
Local Time: 11:56 PM GMT (23:56 GMT) Lon: -73.417
Time Zone: GMT Elev: 88 ft

Show me the last for .
Show Coded

Time T Td Feel RH Dir Speed Gust Alt SLP Vis Weather Sky Remarks
2018-01-23 23:03 28 27 19 92 350° 10 - 29.45 29.46 4 -SN OVC005 None
2018-01-23 23:00 28 27 20 92 350° 9 - 29.45 29.46 4 -SN -FZUP OVC005 None
2018-01-23 22:59 28 27 20 92 340° 9 - 29.45 29.46 4 -SN -FZUP OVC005 None
2018-01-23 22:57 28 27 20 92 340° 9 - 29.45 29.46 4 -FZRA -SN OVC005 None
2018-01-23 22:51 28 27 20 92 340° 8 - 29.46 29.46 4 -FZRA BR OVC005 None
2018-01-23 22:45 28 27 21 92 350° 7 - 29.46 29.46 4 -FZRA -SN OVC005 None
2018-01-23 22:37 28 27 21 92 360° 7 - 29.46 29.46 3 -SN OVC005 None
2018-01-23 22:19 28 27 20 92 330° 9 - 29.46 29.46 2 -SN OVC005 None
2018-01-23 22:14 28 27 21 92 340° 7 - 29.46 29.46 2 -FZRA -SN OVC005 Pressure rising rapidly
2018-01-23 22:13 27 27 19 100 360° 7 - 29.45 29.46 3 -FZRA -SN OVC005 None
2018-01-23 22:11 27 27 19 100 350° 7 - 29.45 29.46 3 -FZRA BR OVC005 None
2018-01-23 22:06 27 27 17 100 350° 9 - 29.45 29.46 4 -FZRA -SN OVC005 None
2018-01-23 22:02 27 27 18 100 350° 8 - 29.45 29.46 4 -SN OVC005 None
2018-01-23 22:00 27 27 17 100 350° 9 - 29.44 29.45 4 -SN OVC005 None
2018-01-23 21:32 27 27 18 100 360° 8 - 29.45 29.46 4 -SN OVC005 None
2018-01-23 21:27 28 27 20 92 360° 8 - 29.45 29.46 4 -SN OVC005 None
2018-01-23 21:24 28 27 20 92 360° 9 - 29.45 29.46 4 BR OVC005 None
2018-01-23 21:20 27 27 17 100 350° 9 - 29.45 29.46 4 -FZRA BR OVC005 None
2018-01-23 21:14 28 27 20 92 360° 9 - 29.45 29.46 3 -FZRA -SN OVC005 None
2018-01-23 21:00 28 27 19 92 350° 10 - 29.46 29.47 3 -SN OVC005 None
2018-01-23 20:59 28 27 20 92 360° 9 - 29.46 29.47 3 -SN OVC005 None
2018-01-23 20:41 27 27 17 100 360° 9 - 29.46 29.47 5 -SN OVC005 None
2018-01-23 20:00 27 27 16 100 360° 13 - 29.47 29.48 5 BR OVC005 None
2018-01-23 19:23 28 27 21 92 10° 7 - 29.48 29.49 5 BR OVC005 None
2018-01-23 19:19 28 27 18 92 10° 13 - 29.48 29.49 5 BR OVC005 None
2018-01-23 19:00 27 27 15 100 360° 14 - 29.49 29.49 4 -SN OVC005 Pressure falling rapidly
2018-01-23 18:28 27 27 18 100 360° 8 - 29.51 29.52 5 -SN OVC005 None
2018-01-23 18:13 27 25 17 92 360° 9 - 29.51 29.52 5 -SN OVC005 None
2018-01-23 18:07 27 25 17 92 10° 10 - 29.51 29.52 6 -SN OVC005 None
2018-01-23 18:00 27 27 17 100 360° 10 - 29.51 29.52 6 BR OVC005 None
2018-01-23 17:43 27 25 17 92 360° 9 - 29.52 29.53 6 BR OVC005 None
2018-01-23 17:38 27 25 16 92 10° 12 - 29.51 29.52 5 BR OVC005 None
2018-01-23 17:29 27 25 16 92 10° 12 - 29.51 29.52 5 BR OVC005 Pressure falling rapidly
2018-01-23 17:15 27 25 17 92 10° 10 - 29.52 29.53 3 -FZRA BR OVC005 Pressure falling rapidly
2018-01-23 17:13 27 25 16 92 10° 12 - 29.53 29.54 3 -FZUP BR OVC005 Pressure falling rapidly
2018-01-23 17:07 27 27 16 100 360° 12 - 29.53 29.54 3 -SN -FZUP OVC005 Pressure falling rapidly
2018-01-23 17:00 27 27 16 100 10° 12 - 29.54 29.55 3 -SN OVC005 Pressure falling rapidly
2018-01-23 16:19 27 25 17 92 20° 10 - 29.57 29.58 5 -SN OVC005 None
2018-01-23 16:00 27 25 15 92 30° 14 - 29.58 29.59 4 -SN OVC007 None
2018-01-23 15:27 25 23 11 92 20° 13 18 29.61 29.62 5 -SN BKN007 OVC010 None
2018-01-23 15:20 25 23 12 92 20° 15 - 29.61 29.62 5 -SN SCT007 OVC013 Pressure falling rapidly
2018-01-23 15:19 25 23 12 92 20° 16 - 29.61 29.62 5 -SN SCT007 OVC013 Pressure falling rapidly
2018-01-23 15:18 25 23 12 92 20° 15 - 29.61 29.62 5 -SN BKN007 OVC013 Pressure falling rapidly
2018-01-23 15:13 25 23 13 92 20° 13 - 29.62 29.63 6 -SN BKN007 OVC015 None
2018-01-23 15:08 25 23 13 92 20° 14 - 29.63 29.64 6 -SN SCT005 SCT010 OVC015 None
2018-01-23 15:07 25 23 13 92 30° 13 - 29.63 29.64 6 BR FEW005 SCT010 OVC015 None
2018-01-23 15:00 25 23 11 92 30° 12 18 29.63 29.64 6 BR OVC015 None
2018-01-23 14:59 25 23 11 92 30° 13 18 29.63 29.64 6 BR OVC015 None
2018-01-23 14:54 25 23 12 92 20° 15 - 29.63 29.64 6 -SN OVC015 Pressure falling rapidly
2018-01-23 14:27 25 23 13 92 20° 13 - 29.66 29.67 4 -SN SCT004 OVC017 None
2018-01-23 14:23 25 23 13 92 10° 14 - 29.66 29.67 5 -SN BKN004 BKN011 OVC017 Pressure falling rapidly
2018-01-23 14:18 25 23 15 92 340° 9 - 29.67 29.68 6 -SN BKN004 BKN011 OVC017 Pressure falling rapidly
2018-01-23 14:13 25 23 13 92 350° 13 - 29.67 29.68 6 -SN SCT004 OVC017 None
2018-01-23 14:09 25 23 15 92 350° 10 - 29.68 29.68 6 -SN BKN004 OVC019 None
2018-01-23 14:07 25 23 15 92 340° 10 - 29.68 29.69 7 BKN004 OVC019 Pressure rising rapidly
2018-01-23 14:00 27 25 17 92 340° 9 - 29.68 29.69 7 SCT004 OVC019 Pressure rising rapidly
2018-01-23 13:02 27 27 14 100 10° 16 - 29.68 29.69 6 BR SCT004 OVC019 None
2018-01-23 13:00 27 27 15 100 10° 15 - 29.68 29.69 6 BR BKN004 OVC019 None
2018-01-23 12:54 28 27 17 92 10° 14 - 29.68 29.69 6 BR BKN004 OVC019 Pressure falling rapidly
2018-01-23 12:24 28 28 17 100 30° 14 - 29.69 29.70 6 BR SCT004 OVC019 None
2018-01-23 12:22 28 28 17 100 30° 14 - 29.70 29.70 6 -FZRA BR SCT004 OVC019 None
2018-01-23 12:11 28 28 18 100 30° 13 - 29.70 29.71 6 -FZRA BR SCT004 OVC021 None
2018-01-23 12:00 28 28 18 100 20° 12 - 29.71 29.72 5 -FZRA BR FEW004 OVC021 None
2018-01-23 11:58 28 28 18 100 30° 13 - 29.71 29.72 5 -FZRA BR FEW004 OVC021 None
2018-01-23 11:52 28 28 19 100 30° 10 - 29.71 29.72 5 -FZRA -SN OVC021 None
2018-01-23 11:49 28 28 18 100 20° 12 - 29.71 29.72 5 -SN OVC021 Pressure falling rapidly
2018-01-23 11:43 28 28 18 100 20° 12 - 29.72 29.73 5 -SN OVC021 None
2018-01-23 11:26 28 28 18 100 30° 13 - 29.73 29.74 6 -SN BKN021 OVC060 Pressure falling rapidly
2018-01-23 11:24 28 28 18 100 30° 13 - 29.74 29.75 6 -SN SCT021 OVC060 None
2018-01-23 11:23 28 28 18 100 30° 12 - 29.74 29.75 6 -FZRA -SN SCT021 OVC060 Pressure falling rapidly
2018-01-23 11:18 28 28 18 100 30° 12 - 29.74 29.75 6 -FZRA -SN FEW021 OVC060 Pressure falling rapidly
2018-01-23 11:14 28 27 18 92 20° 13 - 29.75 29.75 6 -FZRA BR OVC060 None
2018-01-23 11:08 28 27 18 92 20° 13 - 29.76 29.76 6 -FZRA -SN FEW006 OVC060 None
2018-01-23 11:00 28 27 17 92 30° 14 - 29.76 29.77 6 -SN SCT006 OVC060 None
2018-01-23 10:57 28 27 17 92 30° 14 - 29.76 29.77 6 -SN SCT006 OVC060 Pressure falling rapidly
2018-01-23 10:51 28 27 17 92 20° 14 - 29.77 29.77 6 -SN BKN006 OVC060 Pressure falling rapidly
2018-01-23 10:41 28 27 18 92 10° 12 - 29.78 29.79 7 -SN OVC006 None
2018-01-23 10:36 28 27 19 92 10° 10 - 29.78 29.79 7 OVC006 None
2018-01-23 10:35 28 27 18 92 20° 12 - 29.78 29.79 7 OVC006 None
2018-01-23 10:27 28 27 17 92 20° 14 - 29.78 29.79 7 -SN BKN006 OVC013 Pressure falling rapidly
2018-01-23 10:25 28 27 18 92 20° 13 - 29.78 29.79 6 -FZRA -SN OVC006 None
2018-01-23 10:21 28 27 19 92 20° 10 - 29.79 29.80 5 -FZRA -SN BKN006 OVC012 None
2018-01-23 10:00 28 27 19 92 30° 10 - 29.80 29.81 5 -FZRA BR BKN008 OVC012 None
2018-01-23 09:09 28 27 18 92 20° 13 - 29.83 29.84 5 -FZRA BR BKN006 OVC012 None
2018-01-23 09:04 28 27 16 92 20° 12 17 29.83 29.84 4 -FZRA -SN BKN006 OVC012 None
2018-01-23 09:03 28 27 16 92 30° 12 17 29.83 29.84 4 -FZRA -SN SCT006 OVC012 None
2018-01-23 09:01 28 27 17 92 20° 14 - 29.83 29.84 4 -SN SCT006 OVC012 None
2018-01-23 09:00 27 27 15 100 20° 14 - 29.83 29.84 4 -SN BKN006 OVC012 None
2018-01-23 08:30 28 27 17 92 30° 16 - 29.84 29.85 5 -SN BKN006 OVC013 Pressure falling rapidly
2018-01-23 08:27 28 27 15 92 30° 14 20 29.85 29.86 5 -FZRA -SN BKN006 OVC013 None
2018-01-23 08:24 28 27 15 92 30° 14 20 29.85 29.86 5 -FZRA -SN SCT006 OVC013 None
2018-01-23 08:22 28 27 15 92 30° 13 20 29.86 29.86 5 -FZRA BR BKN008 OVC013 None
2018-01-23 08:00 28 27 18 92 30° 13 - 29.86 29.87 5 -FZRA BR SCT005 OVC014 None
2018-01-23 07:36 28 27 15 92 40° 13 20 29.88 29.89 4 -FZRA BR FEW005 OVC013 None
2018-01-23 07:27 28 27 16 92 40° 17 - 29.89 29.89 4 -FZRA -SN OVC013 None
2018-01-23 07:13 28 27 16 92 40° 17 - 29.89 29.90 4 -FZRA BR OVC013 None
2018-01-23 07:07 28 27 16 92 30° 17 - 29.89 29.90 4 -FZRA -SN OVC013 None
2018-01-23 07:00 28 27 17 92 30° 16 - 29.90 29.91 5 -SN OVC013 None
2018-01-23 06:36 28 27 16 92 50° 13 18 29.91 29.92 5 -SN FEW005 BKN011 OVC016 None
2018-01-23 06:35 28 27 16 92 50° 13 18 29.91 29.92 5 -SN BKN008 OVC014 None
2018-01-23 06:27 28 27 15 92 40° 14 20 29.92 29.93 5 -SN SCT006 BKN011 OVC017 None
2018-01-23 06:00 27 27 15 100 40° 14 - 29.94 29.95 5 -SN BKN006 OVC014 None
2018-01-23 05:20 27 25 15 92 40° 14 - 29.96 29.97 4 -SN OVC006 None
2018-01-23 05:14 27 25 13 92 40° 13 18 29.96 29.97 4 -FZRA -SN OVC006 None
2018-01-23 05:08 27 25 13 92 40° 14 20 29.96 29.97 4 -FZRA BR OVC006 None
2018-01-23 05:02 27 25 12 92 40° 16 22 29.96 29.97 4 -FZRA -SN OVC006 Pressure falling rapidly
2018-01-23 05:00 27 25 12 92 40° 16 22 29.96 29.97 4 -SN OVC006 Pressure falling rapidly
2018-01-23 04:36 25 23 11 92 50° 14 20 29.99 29.99 4 -SN OVC006 None
2018-01-23 04:29 25 23 10 92 40° 15 21 29.99 29.99 5 -FZRA -SN OVC006 None
2018-01-23 04:23 23 21 8 92 50° 15 21 29.99 30.00 7 -FZRA -SN OVC006 None
2018-01-23 04:20 23 21 10 92 50° 16 - 29.99 30.00 7 -SN OVC006 None
2018-01-23 04:14 23 21 8 92 50° 15 22 29.99 30.00 8 -RASN OVC008 None
2018-01-23 04:12 23 21 8 92 50° 14 22 29.99 30.00 9 -RA OVC008 None
2018-01-23 04:11 23 21 8 92 50° 14 22 30.00 30.01 9 -FZRA OVC008 None
2018-01-23 04:00 23 21 7 92 50° 17 23 30.00 30.01 7 -FZRA OVC010 None
2018-01-23 03:45 23 21 9 92 50° 17 - 30.02 30.02 6 -FZRA BR OVC010 None
2018-01-23 03:43 23 21 7 92 40° 17 23 30.02 30.03 5 -FZRA BR OVC010 None
2018-01-23 03:39 23 21 7 92 50° 16 25 30.02 30.03 3 -FZRA -SN OVC010 None
2018-01-23 03:37 23 21 7 92 50° 16 25 30.02 30.03 2 -FZRA -SN OVC010 None
2018-01-23 03:34 23 21 7 92 50° 18 25 30.02 30.03 2 -SN -FZUP OVC010 Pressure falling rapidly
2018-01-23 03:31 23 21 9 92 50° 17 - 30.02 30.03 2 -FZRA -SN OVC010 None
2018-01-23 03:29 23 21 8 92 50° 16 22 30.03 30.04 2 -FZRA BR OVC010 None
2018-01-23 03:23 23 19 9 85 40° 17 - 30.03 30.04 3 -FZRA -SN OVC010 None
2018-01-23 03:08 23 19 7 85 40° 17 25 30.04 30.05 3 -SN OVC012 Pressure falling rapidly
2018-01-23 03:00 23 19 7 85 40° 18 25 30.04 30.05 2 -SN OVC012 Pressure falling rapidly
2018-01-23 02:49 23 21 7 92 40° 17 24 30.06 30.07 2 -SN BKN012 BKN028 OVC033 Pressure falling rapidly
2018-01-23 02:37 21 19 4 92 40° 18 24 30.07 30.08 3 -SN BKN014 BKN028 OVC036 None
2018-01-23 02:32 21 19 4 92 40° 17 24 30.07 30.08 3 -SN SCT014 SCT028 OVC036 Pressure falling rapidly
2018-01-23 02:23 21 19 7 92 40° 17 - 30.08 30.09 2 -SN FEW014 SCT028 OVC036 None
2018-01-23 02:08 19 18 2 92 50° 16 23 30.09 30.10 1 -SN FEW019 OVC034 Pressure falling rapidly
2018-01-23 02:00 19 18 5 92 40° 16 - 30.10 30.11 1 -SN FEW019 OVC028 None
2018-01-23 01:49 19 18 3 92 40° 15 22 30.11 30.12 1 -SN FEW019 OVC026 None
2018-01-23 01:00 19 16 4 85 30° 17 - 30.15 30.16 1 -SN VV012 Pressure falling rapidly
2018-01-23 00:00 19 18 4 92 30° 18 - 30.17 30.18 0 -SN VV011 None

Support USWX by starting your Amazon purchase here.